createdAt,value
2023-02-04T00:00:17.451Z,20.85
2023-02-04T00:02:43.830Z,20.86
2023-02-04T00:05:10.189Z,20.86
2023-02-04T00:07:36.528Z,20.88
2023-02-04T00:10:03.051Z,20.89
2023-02-04T00:12:29.474Z,20.89
2023-02-04T00:14:55.801Z,20.91
2023-02-04T00:17:22.153Z,20.90
2023-02-04T00:19:48.470Z,20.91
2023-02-04T00:22:14.878Z,20.91
2023-02-04T00:24:42.993Z,20.89
2023-02-04T00:27:09.310Z,20.89
2023-02-04T00:29:36.027Z,20.88
2023-02-04T00:32:02.565Z,20.86
2023-02-04T00:34:28.949Z,20.85
2023-02-04T00:36:55.281Z,20.85
2023-02-04T00:39:21.617Z,20.85
2023-02-04T00:41:47.951Z,20.85
2023-02-04T00:44:14.348Z,20.83
2023-02-04T00:46:43.616Z,20.83
2023-02-04T00:49:12.877Z,20.82
2023-02-04T00:51:39.818Z,20.82
2023-02-04T00:54:06.527Z,20.79
2023-02-04T00:56:33.274Z,20.83
2023-02-04T00:58:59.620Z,20.86
2023-02-04T01:01:25.971Z,20.90
2023-02-04T01:03:52.337Z,20.89
2023-02-04T01:06:18.696Z,20.91
2023-02-04T01:08:45.082Z,20.91
2023-02-04T01:11:11.449Z,20.90
2023-02-04T01:13:37.770Z,20.89
2023-02-04T01:16:04.135Z,20.89
2023-02-04T01:18:30.483Z,20.88
2023-02-04T01:20:56.978Z,20.87
2023-02-04T01:23:23.310Z,20.87
2023-02-04T01:25:49.630Z,20.87
2023-02-04T01:28:16.022Z,20.85
2023-02-04T01:30:42.466Z,20.84
2023-02-04T01:33:08.851Z,20.84
2023-02-04T01:35:35.188Z,20.82
2023-02-04T01:38:01.540Z,20.82
2023-02-04T01:40:29.348Z,20.81
2023-02-04T01:42:55.898Z,20.80
2023-02-04T01:45:23.620Z,20.80
2023-02-04T01:47:49.967Z,20.80
2023-02-04T01:50:16.488Z,20.80
2023-02-04T01:52:42.900Z,20.81
2023-02-04T01:55:13.549Z,20.81
2023-02-04T01:57:39.938Z,20.82
2023-02-04T02:00:07.030Z,20.83
2023-02-04T02:02:42.241Z,20.82
2023-02-04T02:05:13.153Z,20.82
2023-02-04T02:07:39.496Z,20.82
2023-02-04T02:10:05.903Z,20.81
2023-02-04T02:12:32.257Z,20.79
2023-02-04T02:14:58.764Z,20.80
2023-02-04T02:17:25.588Z,20.79
2023-02-04T02:19:51.941Z,20.78
2023-02-04T02:22:21.692Z,20.77
2023-02-04T02:24:48.014Z,20.76
2023-02-04T02:27:14.342Z,20.75
2023-02-04T02:29:40.918Z,20.77
2023-02-04T02:32:07.562Z,20.77
2023-02-04T02:34:33.890Z,20.76
2023-02-04T02:37:02.026Z,20.78
2023-02-04T02:39:28.343Z,20.79
2023-02-04T02:41:55.196Z,20.78
2023-02-04T02:44:21.666Z,20.80
2023-02-04T02:46:48.132Z,20.78
2023-02-04T02:49:15.952Z,20.78
2023-02-04T02:51:42.483Z,20.78
2023-02-04T02:54:13.521Z,20.78
2023-02-04T02:56:40.069Z,20.77
2023-02-04T02:59:13.562Z,20.75
2023-02-04T03:01:39.977Z,20.74
2023-02-04T03:24:13.254Z,20.76
2023-02-04T03:26:39.737Z,20.75
2023-02-04T03:29:06.611Z,20.75
2023-02-04T03:31:33.096Z,20.73
2023-02-04T03:33:59.467Z,20.75
2023-02-04T03:36:25.793Z,20.74
2023-02-04T03:38:54.827Z,20.72
2023-02-04T03:41:21.134Z,20.70
2023-02-04T03:43:47.448Z,20.70
2023-02-04T03:46:13.803Z,20.70
2023-02-04T03:48:40.175Z,20.71
2023-02-04T03:51:06.519Z,20.72
2023-02-04T03:53:32.844Z,20.73
2023-02-04T03:55:59.187Z,20.75
2023-02-04T03:58:25.532Z,20.76
2023-02-04T04:00:51.884Z,20.76
2023-02-04T04:03:18.229Z,20.77
2023-02-04T04:05:44.563Z,20.78
2023-02-04T04:08:10.891Z,20.78
2023-02-04T04:10:37.226Z,20.80
2023-02-04T04:13:03.563Z,20.80
2023-02-04T04:15:30.666Z,20.81
2023-02-04T04:17:56.971Z,20.81
2023-02-04T04:20:28.037Z,20.81
2023-02-04T04:22:54.349Z,20.80
2023-02-04T04:25:20.889Z,20.80
2023-02-04T04:27:47.226Z,20.80
2023-02-04T04:30:13.576Z,20.80
2023-02-04T04:32:42.915Z,20.80
2023-02-04T04:35:09.242Z,20.79
2023-02-04T04:37:35.568Z,20.76
2023-02-04T04:40:02.701Z,20.78
2023-02-04T04:42:29.023Z,20.78
2023-02-04T04:44:55.353Z,20.77
2023-02-04T04:47:21.738Z,20.77
2023-02-04T04:49:48.071Z,20.76
2023-02-04T04:52:14.403Z,20.76
2023-02-04T04:54:40.720Z,20.75
2023-02-04T04:57:07.093Z,20.75
2023-02-04T04:59:33.421Z,20.75
2023-02-04T05:01:59.740Z,20.76
2023-02-04T05:04:26.101Z,20.76
2023-02-04T05:06:52.445Z,20.78
2023-02-04T05:09:18.797Z,20.78
2023-02-04T05:11:45.115Z,20.78
2023-02-04T05:14:11.459Z,20.79
2023-02-04T05:16:37.857Z,20.81
2023-02-04T05:19:04.231Z,20.81
2023-02-04T05:21:30.588Z,20.83
2023-02-04T05:23:56.916Z,20.83
2023-02-04T05:26:30.153Z,20.82
2023-02-04T05:28:57.431Z,20.82
2023-02-04T05:31:23.893Z,20.81
2023-02-04T05:33:50.309Z,20.80
2023-02-04T05:36:17.747Z,20.80
2023-02-04T05:38:44.089Z,20.80
2023-02-04T05:41:10.418Z,20.79
2023-02-04T05:43:36.747Z,20.80
2023-02-04T05:46:03.123Z,20.79
2023-02-04T05:48:29.509Z,20.79
2023-02-04T05:50:55.834Z,20.79
2023-02-04T05:53:22.155Z,20.78
2023-02-04T05:55:48.499Z,20.78
2023-02-04T05:58:14.851Z,20.76
2023-02-04T06:00:41.183Z,20.76
2023-02-04T06:03:07.571Z,20.76
2023-02-04T06:05:33.953Z,20.76
2023-02-04T06:08:00.299Z,20.78
2023-02-04T06:10:26.652Z,20.78
2023-02-04T06:12:52.993Z,20.78
2023-02-04T06:15:20.501Z,20.79
2023-02-04T06:17:46.814Z,20.80
2023-02-04T06:20:13.542Z,20.80
2023-02-04T06:22:39.869Z,20.81
2023-02-04T06:25:06.301Z,20.81
2023-02-04T06:27:32.669Z,20.82
2023-02-04T06:29:59.004Z,20.83
2023-02-04T06:32:25.328Z,20.83
2023-02-04T06:34:51.664Z,20.81
2023-02-04T06:37:18.076Z,20.81
2023-02-04T06:39:44.544Z,20.81
2023-02-04T06:42:10.905Z,20.80
2023-02-04T06:44:37.246Z,20.80
2023-02-04T06:47:03.583Z,20.80
2023-02-04T06:49:29.961Z,20.80
2023-02-04T06:51:56.297Z,20.80
2023-02-04T06:54:22.614Z,20.79
2023-02-04T06:56:48.984Z,20.78
2023-02-04T06:59:15.318Z,20.77
2023-02-04T07:01:41.683Z,20.77
2023-02-04T07:04:08.065Z,20.77
2023-02-04T07:06:34.382Z,20.76
2023-02-04T07:09:00.738Z,20.76
2023-02-04T07:11:27.076Z,20.77
2023-02-04T07:13:53.400Z,20.77
2023-02-04T07:16:19.749Z,20.79
2023-02-04T07:18:46.073Z,20.78
2023-02-04T07:21:12.406Z,20.79
2023-02-04T07:23:38.749Z,20.80
2023-02-04T07:26:05.175Z,20.35
2023-02-04T07:28:31.565Z,20.26
2023-02-04T07:30:58.042Z,20.57
2023-02-04T07:33:24.425Z,20.78
2023-02-04T07:35:50.769Z,20.83
2023-02-04T07:38:17.094Z,20.82
2023-02-04T07:40:46.328Z,20.82
2023-02-04T07:43:13.063Z,20.80
2023-02-04T07:45:39.586Z,20.79
2023-02-04T07:48:05.949Z,20.78
2023-02-04T07:50:32.597Z,20.79
2023-02-04T07:52:59.078Z,20.81
2023-02-04T07:55:25.404Z,20.81
2023-02-04T07:57:51.728Z,20.82
2023-02-04T08:00:18.091Z,20.79
2023-02-04T08:02:44.485Z,20.81
2023-02-04T08:05:10.895Z,20.84
2023-02-04T08:07:37.219Z,20.86
2023-02-04T08:10:04.537Z,20.51
2023-02-04T08:12:30.862Z,16.54
2023-02-04T08:14:57.195Z,14.50
2023-02-04T08:17:23.512Z,13.88
2023-02-04T08:19:49.853Z,14.60
2023-02-04T08:22:16.173Z,16.10
2023-02-04T08:24:42.556Z,16.81
2023-02-04T08:27:08.883Z,17.12
2023-02-04T08:29:35.225Z,18.00
2023-02-04T08:32:01.653Z,18.67
2023-02-04T08:34:28.013Z,19.12
2023-02-04T08:36:54.333Z,19.35
2023-02-04T08:39:20.724Z,19.52
2023-02-04T08:41:49.043Z,19.63
2023-02-04T08:44:15.463Z,19.73
2023-02-04T08:46:41.833Z,19.79
2023-02-04T08:49:08.196Z,19.83
2023-02-04T08:51:34.531Z,19.94
2023-02-04T08:54:00.890Z,19.22
2023-02-04T08:56:27.237Z,19.24
2023-02-04T08:58:53.563Z,19.58
2023-02-04T09:01:20.024Z,19.78
2023-02-04T09:03:46.359Z,19.86
2023-02-04T09:06:12.684Z,19.91
2023-02-04T09:08:39.038Z,19.85
2023-02-04T09:11:05.538Z,19.91
2023-02-04T09:13:32.633Z,19.96
2023-02-04T09:15:59.027Z,20.01
2023-02-04T09:18:25.966Z,20.04
2023-02-04T09:20:52.385Z,20.08
2023-02-04T09:23:18.757Z,20.11
2023-02-04T09:25:45.216Z,20.12
2023-02-04T09:28:12.477Z,20.14
2023-02-04T09:30:39.161Z,20.15
2023-02-04T09:33:05.502Z,19.84
2023-02-04T09:35:31.840Z,19.73
2023-02-04T09:37:58.262Z,19.96
2023-02-04T09:40:24.612Z,20.12
2023-02-04T09:42:51.019Z,20.00
2023-02-04T09:45:17.831Z,20.22
2023-02-04T09:47:44.143Z,20.36
2023-02-04T09:50:14.461Z,20.35
2023-02-04T09:52:40.779Z,20.39
2023-02-04T09:55:13.074Z,20.34
2023-02-04T09:57:41.105Z,20.44
2023-02-04T10:00:14.968Z,20.41
2023-02-04T10:02:41.317Z,20.41
2023-02-04T10:05:09.740Z,20.42
2023-02-04T10:07:36.055Z,20.40
2023-02-04T10:10:02.901Z,20.37
2023-02-04T10:12:29.488Z,19.46
2023-02-04T10:14:55.820Z,19.62
2023-02-04T10:17:22.232Z,20.00
2023-02-04T10:19:48.558Z,20.18
2023-02-04T10:22:18.603Z,20.26
2023-02-04T10:24:44.985Z,20.32
2023-02-04T10:27:11.749Z,20.34
2023-02-04T10:29:38.159Z,20.37
2023-02-04T10:32:04.488Z,20.40
2023-02-04T10:34:34.697Z,20.40
2023-02-04T10:37:45.243Z,20.38
2023-02-04T10:40:27.618Z,20.36
2023-02-04T10:42:54.009Z,20.36
2023-02-04T10:45:27.208Z,20.38
2023-02-04T10:47:54.324Z,20.40
2023-02-04T10:50:21.364Z,20.40
2023-02-04T10:52:49.555Z,20.41
2023-02-04T10:55:19.916Z,20.43
2023-02-04T10:57:46.885Z,20.45
2023-02-04T11:00:20.241Z,20.45
2023-02-04T11:02:49.250Z,20.45
2023-02-04T11:05:16.652Z,20.47
2023-02-04T11:07:43.146Z,20.46
2023-02-04T11:10:12.850Z,20.48
2023-02-04T11:12:43.211Z,20.46
2023-02-04T11:15:28.551Z,20.47
2023-02-04T11:18:04.550Z,20.46
2023-02-04T11:20:31.650Z,20.46
2023-02-04T11:22:58.193Z,20.47
2023-02-04T11:25:31.607Z,20.50
2023-02-04T11:27:58.134Z,20.50
2023-02-04T11:30:24.484Z,20.50
2023-02-04T11:33:17.205Z,20.52
2023-02-04T11:35:43.579Z,20.52
2023-02-04T11:38:23.144Z,20.54
2023-02-04T11:40:54.998Z,20.56
2023-02-04T11:43:22.062Z,20.55
2023-02-04T11:45:48.434Z,20.55
2023-02-04T11:48:18.509Z,20.55
2023-02-04T11:50:54.810Z,20.55
2023-02-04T11:53:21.136Z,20.56
2023-02-04T11:55:47.892Z,20.55
2023-02-04T11:58:14.916Z,20.53
2023-02-04T12:00:42.449Z,20.55
2023-02-04T12:03:29.664Z,20.56
2023-02-04T12:05:56.132Z,20.59
2023-02-04T12:08:22.384Z,20.59
2023-02-04T12:11:02.183Z,20.60
2023-02-04T12:13:30.567Z,20.61
2023-02-04T12:16:01.077Z,20.59
2023-02-04T12:18:30.142Z,20.60
2023-02-04T12:20:56.557Z,20.61
2023-02-04T12:23:23.325Z,20.58
2023-02-04T12:25:49.678Z,20.60
2023-02-04T12:28:16.024Z,20.60
2023-02-04T12:30:42.393Z,20.60
2023-02-04T12:33:08.736Z,20.61
2023-02-04T12:35:35.081Z,20.61
2023-02-04T12:38:01.421Z,20.62
2023-02-04T12:40:27.764Z,20.63
2023-02-04T12:42:54.101Z,20.65
2023-02-04T12:45:20.450Z,20.66
2023-02-04T12:47:46.775Z,20.65
2023-02-04T12:50:13.856Z,20.65
2023-02-04T12:52:40.200Z,20.65
2023-02-04T12:55:07.017Z,20.65
2023-02-04T12:57:33.457Z,20.65
2023-02-04T13:00:01.362Z,20.63
2023-02-04T13:02:27.899Z,20.63
2023-02-04T13:04:54.230Z,20.63
2023-02-04T13:07:21.557Z,20.63
2023-02-04T13:09:48.123Z,20.64
2023-02-04T13:12:14.601Z,20.65
2023-02-04T13:14:41.350Z,20.65
2023-02-04T13:17:07.687Z,20.67
2023-02-04T13:19:34.012Z,20.67
2023-02-04T13:22:00.348Z,20.67
2023-02-04T13:24:26.702Z,20.66
2023-02-04T13:26:53.056Z,20.66
2023-02-04T13:29:19.655Z,20.66
2023-02-04T13:31:46.030Z,20.65
2023-02-04T13:34:12.365Z,20.65
2023-02-04T13:36:38.866Z,20.66
2023-02-04T13:39:05.205Z,20.66
2023-02-04T13:41:31.553Z,20.68
2023-02-04T13:43:58.445Z,20.69
2023-02-04T13:46:24.798Z,20.70
2023-02-04T13:48:51.145Z,20.70
2023-02-04T13:51:17.487Z,20.72
2023-02-04T13:53:43.808Z,20.73
2023-02-04T13:56:10.158Z,20.71
2023-02-04T13:58:36.485Z,20.71
2023-02-04T14:01:02.912Z,20.72
2023-02-04T14:03:29.308Z,20.71
2023-02-04T14:05:55.698Z,20.70
2023-02-04T14:08:22.166Z,20.70
2023-02-04T14:10:48.505Z,20.71
2023-02-04T14:13:14.829Z,20.71
2023-02-04T14:15:44.065Z,20.70
2023-02-04T14:18:10.387Z,20.71
2023-02-04T14:20:36.721Z,20.72
2023-02-04T14:23:03.759Z,20.74
2023-02-04T14:25:30.114Z,20.74
2023-02-04T14:27:59.831Z,20.75
2023-02-04T14:30:27.236Z,20.75
2023-02-04T14:32:53.719Z,20.74
2023-02-04T14:35:20.062Z,20.75
2023-02-04T14:37:46.399Z,20.75
2023-02-04T14:40:12.836Z,20.75
2023-02-04T14:42:39.172Z,20.74
2023-02-04T14:45:05.852Z,20.75
2023-02-04T14:47:32.492Z,20.75
2023-02-04T14:49:58.868Z,20.76
2023-02-04T14:52:25.204Z,20.76
2023-02-04T14:54:51.530Z,20.77
2023-02-04T14:57:17.872Z,20.77
2023-02-04T14:59:44.194Z,20.77
2023-02-04T15:02:10.733Z,20.78
2023-02-04T15:04:37.139Z,20.77
2023-02-04T15:07:03.465Z,20.77
2023-02-04T15:09:29.785Z,20.76
2023-02-04T15:11:56.144Z,20.75
2023-02-04T15:14:22.530Z,20.75
2023-02-04T15:16:49.226Z,20.75
2023-02-04T15:19:16.029Z,20.76
2023-02-04T15:21:42.628Z,20.76
2023-02-04T15:24:08.976Z,20.77
2023-02-04T15:26:35.316Z,20.76
2023-02-04T15:29:01.783Z,20.75
2023-02-04T15:31:28.213Z,20.75
2023-02-04T15:33:54.626Z,20.76
2023-02-04T15:36:21.176Z,20.76
2023-02-04T15:38:47.493Z,20.77
2023-02-04T15:41:13.869Z,20.77
2023-02-04T15:43:40.236Z,20.78
2023-02-04T15:46:06.710Z,20.78
2023-02-04T15:48:33.082Z,20.77
2023-02-04T15:50:59.413Z,20.78
2023-02-04T15:53:25.739Z,20.78
2023-02-04T15:55:52.078Z,20.76
2023-02-04T15:58:18.408Z,20.75
2023-02-04T16:00:44.738Z,20.76
2023-02-04T16:03:11.242Z,20.76
2023-02-04T16:05:37.564Z,20.75
2023-02-04T16:08:03.933Z,20.72
2023-02-04T16:10:30.297Z,20.68
2023-02-04T16:12:57.752Z,20.72
2023-02-04T16:15:24.256Z,20.78
2023-02-04T16:17:51.043Z,20.75
2023-02-04T16:20:17.718Z,20.78
2023-02-04T16:22:44.048Z,20.76
2023-02-04T16:25:10.383Z,20.76
2023-02-04T16:27:36.717Z,20.76
2023-02-04T16:30:03.276Z,20.76
2023-02-04T16:32:29.697Z,20.74
2023-02-04T16:34:56.780Z,20.74
2023-02-04T16:37:23.152Z,20.75
2023-02-04T16:39:51.457Z,20.75
2023-02-04T16:42:17.794Z,20.77
2023-02-04T16:44:44.113Z,20.77
2023-02-04T16:47:10.472Z,20.77
2023-02-04T16:49:36.802Z,20.78
2023-02-04T16:52:04.988Z,19.91
2023-02-04T16:54:31.686Z,19.83
2023-02-04T16:57:00.131Z,20.23
2023-02-04T16:59:26.902Z,20.43
2023-02-04T17:01:53.312Z,20.56
2023-02-04T17:04:19.704Z,20.81
2023-02-04T17:06:46.096Z,20.83
2023-02-04T17:09:12.430Z,20.86
2023-02-04T17:11:38.774Z,20.85
2023-02-04T17:14:06.167Z,20.89
2023-02-04T17:16:33.492Z,20.95
2023-02-04T17:18:59.836Z,20.97
2023-02-04T17:21:26.454Z,20.96
2023-02-04T17:23:52.789Z,20.96
2023-02-04T17:26:19.113Z,20.91
2023-02-04T17:28:45.493Z,21.07
2023-02-04T17:31:11.878Z,20.98
2023-02-04T17:33:38.267Z,20.96
2023-02-04T17:36:05.275Z,21.03
2023-02-04T17:38:31.687Z,21.03
2023-02-04T17:40:58.295Z,20.98
2023-02-04T17:43:24.793Z,20.96
2023-02-04T17:45:51.196Z,20.98
2023-02-04T17:48:17.791Z,20.96
2023-02-04T17:50:44.177Z,20.96
2023-02-04T17:53:10.556Z,20.98
2023-02-04T17:55:37.930Z,20.97
2023-02-04T17:58:23.066Z,20.93
2023-02-04T18:00:49.476Z,20.91
2023-02-04T18:03:16.812Z,20.90
2023-02-04T18:05:44.553Z,20.89
2023-02-04T18:08:11.631Z,20.89
2023-02-04T18:10:38.472Z,20.87
2023-02-04T18:13:09.761Z,20.89
2023-02-04T18:15:36.848Z,20.89
2023-02-04T18:18:15.781Z,20.95
2023-02-04T18:20:42.114Z,21.09
2023-02-04T18:23:15.743Z,21.13
2023-02-04T18:25:42.174Z,21.21
2023-02-04T18:28:13.571Z,21.26
2023-02-04T18:30:39.982Z,21.29
2023-02-04T18:33:17.759Z,21.33
2023-02-04T18:35:46.974Z,21.27
2023-02-04T18:38:23.287Z,21.11
2023-02-04T18:40:50.285Z,21.04
2023-02-04T18:43:23.491Z,21.01
2023-02-04T18:45:49.908Z,21.00
2023-02-04T18:48:18.958Z,21.00
2023-02-04T18:50:46.245Z,20.99
2023-02-04T18:53:16.200Z,20.99
2023-02-04T18:55:43.245Z,20.98
2023-02-04T18:58:49.800Z,21.00
2023-02-04T19:01:21.991Z,21.02
2023-02-04T19:03:50.439Z,21.02
2023-02-04T19:06:26.617Z,21.01
2023-02-04T19:08:53.031Z,21.01
2023-02-04T19:11:28.947Z,20.98
2023-02-04T19:13:55.452Z,20.98
2023-02-04T19:16:23.480Z,20.99
2023-02-04T19:18:49.983Z,20.97
2023-02-04T19:21:21.600Z,20.94
2023-02-04T19:23:50.942Z,20.92
2023-02-04T19:26:33.582Z,20.96
2023-02-04T19:28:59.965Z,20.94
2023-02-04T19:31:33.436Z,20.92
2023-02-04T19:33:59.798Z,20.58
2023-02-04T19:36:36.813Z,19.41
2023-02-04T19:39:05.122Z,20.06
2023-02-04T19:41:34.010Z,20.46
2023-02-04T19:44:26.685Z,20.65
2023-02-04T19:46:53.022Z,20.81
2023-02-04T19:49:27.853Z,20.83
2023-02-04T19:51:54.832Z,20.84
2023-02-04T19:54:24.083Z,20.82
2023-02-04T19:56:53.960Z,20.85
2023-02-04T19:59:29.766Z,20.85
2023-02-04T20:01:58.544Z,20.86
2023-02-04T20:04:24.889Z,20.88
2023-02-04T20:06:51.224Z,20.89
2023-02-04T20:09:18.328Z,20.87
2023-02-04T20:11:52.888Z,20.88
2023-02-04T20:14:29.270Z,20.88
2023-02-04T20:16:57.514Z,20.87
2023-02-04T20:19:26.535Z,20.86
2023-02-04T20:21:56.714Z,20.87
2023-02-04T20:24:23.049Z,20.87
2023-02-04T20:26:50.864Z,20.88
2023-02-04T20:29:18.828Z,20.86
2023-02-04T20:31:45.289Z,20.85
2023-02-04T20:34:18.797Z,20.83
2023-02-04T20:36:45.995Z,20.85
2023-02-04T20:39:32.506Z,20.85
2023-02-04T20:41:59.514Z,20.87
2023-02-04T20:44:27.332Z,20.85
2023-02-04T20:46:58.397Z,20.87
2023-02-04T20:49:25.137Z,20.86
2023-02-04T20:51:55.924Z,20.87
2023-02-04T20:54:22.257Z,20.89
2023-02-04T20:56:48.588Z,20.89
2023-02-04T20:59:14.841Z,20.89
2023-02-04T21:01:44.516Z,20.90
2023-02-04T21:04:13.670Z,20.91
2023-02-04T21:06:40.026Z,20.92
2023-02-04T21:09:10.308Z,20.91
2023-02-04T21:11:36.681Z,20.91
2023-02-04T21:14:03.042Z,20.88
2023-02-04T21:16:29.388Z,20.86
2023-02-04T21:18:55.711Z,20.87
2023-02-04T21:21:24.345Z,20.85
2023-02-04T21:23:50.708Z,20.84
2023-02-04T21:26:17.025Z,20.82
2023-02-04T21:28:43.631Z,20.80
2023-02-04T21:31:11.573Z,20.81
2023-02-04T21:33:38.018Z,20.82
2023-02-04T21:36:04.406Z,20.84
2023-02-04T21:38:30.774Z,20.83
2023-02-04T21:40:57.116Z,20.84
2023-02-04T21:43:23.465Z,20.82
2023-02-04T21:45:49.820Z,20.84
2023-02-04T21:48:16.176Z,20.82
2023-02-04T21:50:42.499Z,20.80
2023-02-04T21:53:08.872Z,20.78
2023-02-04T21:55:35.448Z,20.78
2023-02-04T21:58:02.046Z,20.79
2023-02-04T22:00:28.370Z,20.78
2023-02-04T22:02:54.739Z,20.78
2023-02-04T22:05:21.114Z,20.79
2023-02-04T22:07:47.454Z,20.82
2023-02-04T22:10:14.973Z,20.82
2023-02-04T22:12:41.295Z,20.81
2023-02-04T22:15:07.738Z,20.82
2023-02-04T22:17:34.058Z,20.79
2023-02-04T22:20:00.403Z,20.79
2023-02-04T22:22:26.726Z,20.78
2023-02-04T22:24:53.077Z,20.76
2023-02-04T22:27:19.388Z,20.78
2023-02-04T22:29:45.712Z,20.77
2023-02-04T22:32:12.023Z,20.77
2023-02-04T22:34:38.356Z,20.75
2023-02-04T22:37:04.765Z,20.74
2023-02-04T22:39:31.113Z,20.77
2023-02-04T22:41:57.433Z,20.76
2023-02-04T22:44:23.787Z,20.76
2023-02-04T22:46:50.246Z,20.77
2023-02-04T22:49:16.654Z,20.79
2023-02-04T22:51:42.977Z,20.77
2023-02-04T22:54:09.313Z,20.76
2023-02-04T22:56:35.804Z,20.74
2023-02-04T22:59:02.166Z,20.75
2023-02-04T23:01:28.509Z,20.75
2023-02-04T23:03:54.887Z,20.73
2023-02-04T23:06:22.375Z,20.71
2023-02-04T23:08:48.749Z,20.73
2023-02-04T23:11:15.576Z,20.75
2023-02-04T23:13:41.952Z,20.77
2023-02-04T23:16:08.338Z,20.78
2023-02-04T23:18:34.683Z,20.77
2023-02-04T23:21:01.007Z,20.77
2023-02-04T23:23:28.617Z,20.76
2023-02-04T23:25:54.930Z,20.76
2023-02-04T23:28:21.264Z,20.75
2023-02-04T23:30:47.735Z,20.74
2023-02-04T23:33:14.101Z,20.72
2023-02-04T23:35:40.472Z,20.70
2023-02-04T23:38:06.801Z,20.71
2023-02-04T23:40:33.185Z,20.70
2023-02-04T23:42:59.521Z,20.71
2023-02-04T23:45:25.936Z,20.70
2023-02-04T23:47:52.276Z,20.68
2023-02-04T23:50:18.612Z,20.68
2023-02-04T23:52:44.931Z,20.71
2023-02-04T23:55:11.286Z,20.71
2023-02-04T23:57:37.616Z,20.70
